Weather observations for the past three days for
Corning Municipal Airport
Imperial (Metric)
Date Time (cdt) Wind (mph) Vis. (mi.) Weather Sky Cond. Temperature (ºF) Relative Humidity Wind Chill (°F) Heat Index (°F) Pressure Precipitation (in)
Air Dwpt 6 hour altimeter (in) sea level (mb) 1 hr 3 hr 6 hr
Max. Min.
04 21:55 S 13 10.00 Fair CLR 69.8 55.4 60% 29.78 0.0
04 21:35 S 13 10.00 Fair CLR 71.6 55.4 57% 29.77 0.0
04 21:15 S 12 10.00 Fair CLR 71.6 57.2 61% 29.77 0.0
04 20:55 S 13 10.00 Fair CLR 73.4 57.2 57% 29.76 0.0
04 20:35 S 12 10.00 Fair CLR 73.4 57.2 57% 29.75 0.0
04 20:15 S 15 G 23 10.00 Fair CLR 75.2 57.2 54% 78 29.75 0.0
04 19:55 S 14 10.00 Fair CLR 75.2 57.2 54% 78 29.75 0.0
04 19:35 S 21 G 28 10.00 Fair and Breezy CLR 77 57.2 51% 79 29.74 0.0
04 19:15 S 20 G 26 10.00 Fair CLR 77 57.2 51% 79 29.74 0.0
04 18:55 S 21 G 28 10.00 Fair and Breezy CLR 78.8 57.2 48% 80 29.74 0.0
04 18:35 S 22 10.00 Fair and Breezy CLR 78.8 57.2 48% 80 29.74 0.0
04 18:15 SW 21 G 28 10.00 Fair and Breezy CLR 80.6 57.2 45% 81 29.75 0.0
04 17:55 SW 22 G 32 9.00 Fair and Breezy CLR 80.6 57.2 45% 81 29.75 0.0
04 17:35 SW 21 10.00 Fair and Breezy CLR 80.6 57.2 45% 81 29.75 0.0
04 17:15 S 23 G 30 10.00 Fair and Breezy CLR 82.4 57.2 42% 82 29.75 0.0
04 16:55 S 25 G 35 10.00 Fair and Breezy CLR 82.4 59 45% 82 29.76 0.0
04 16:35 SW 23 G 29 9.00 Fair and Breezy CLR 82.4 57.2 42% 82 29.76 0.0
04 16:15 S 26 10.00 Fair and Windy CLR 82.4 59 45% 82 29.76 0.0
04 15:55 SW 25 10.00 Fair and Breezy CLR 82.4 57.2 42% 82 29.76 0.0
04 15:35 SW 25 G 35 9.00 Fair and Breezy CLR 82.4 57.2 42% 82 29.77 0.0
04 15:15 SW 25 G 35 9.00 Fair and Breezy CLR 82.4 57.2 42% 82 29.78 0.0
04 14:55 SW 22 G 33 9.00 Fair and Breezy CLR 82.4 57.2 42% 82 29.79 0.0
04 14:35 SW 23 G 33 10.00 Fair and Breezy CLR 82.4 55.4 40% 82 29.8 0.0
04 14:15 SW 25 G 36 10.00 Fair and Breezy CLR 82.4 55.4 40% 82 29.8 0.0
04 13:55 SW 26 10.00 Fair and Windy CLR 80.6 57.2 45% 81 29.8 0.0
04 13:35 S 28 G 36 10.00 Fair and Windy CLR 80.6 57.2 45% 81 29.81 0.0
04 13:15 SW 25 G 38 10.00 Fair and Breezy CLR 80.6 55.4 42% 81 29.82 0.0
04 12:55 SW 29 G 35 10.00 Fair and Windy CLR 80.6 55.4 42% 81 29.82 0.0
04 12:35 SW 29 G 37 10.00 Fair and Windy CLR 78.8 53.6 42% 79 29.83 0.0
04 12:15 SW 30 G 36 10.00 Fair and Windy CLR 78.8 55.4 45% 79 29.84 0.0
04 11:55 SW 26 G 36 9.00 Fair and Windy CLR 78.8 55.4 45% 79 29.84 0.0
04 11:35 SW 29 10.00 Fair and Windy CLR 78.8 55.4 45% 79 29.84 0.0
04 11:15 SW 25 G 35 10.00 Fair and Breezy CLR 77 55.4 47% 79 29.85 0.0
04 10:55 SW 24 G 32 10.00 Fair and Breezy CLR 77 55.4 47% 79 29.86 0.0
04 10:35 SW 22 G 28 10.00 Fair and Breezy CLR 75.2 55.4 50% 78 29.86 0.0
04 10:15 SW 21 10.00 Fair and Breezy CLR 75.2 55.4 50% 78 29.87 0.0
04 09:55 SW 22 10.00 Fair and Breezy CLR 73.4 55.4 53% 29.87 0.0
04 09:35 SW 17 10.00 Fair CLR 71.6 57.2 61% 29.88 0.0
04 09:15 SW 16 10.00 Fair CLR 69.8 57.2 64% 29.88 0.0
04 08:55 SW 14 G 20 10.00 Fair CLR 68 55.4 64% 29.88 0.0
04 08:35 SW 14 10.00 Fair CLR 68 55.4 64% 29.88 0.0
04 08:15 SW 13 10.00 Fair CLR 66.2 57.2 73% 29.88 0.0
04 07:55 SW 13 10.00 Fair CLR 64.4 57.2 78% 29.88 0.0
04 07:35 SW 9 10.00 Fair CLR 62.6 55.4 77% 29.88 0.0
04 07:15 S 9 10.00 Fair CLR 60.8 55.4 83% 29.88 0.0
04 06:55 SW 8 10.00 Fair CLR 60.8 55.4 83% 29.88 0.0
04 06:35 SW 9 10.00 Fair CLR 60.8 55.4 83% 29.87 0.0
04 06:15 SW 9 10.00 Fair CLR 60.8 55.4 83% 29.86 0.0
04 05:55 SW 14 10.00 Fair CLR 60.8 55.4 83% 29.86 0.0
04 05:35 SW 12 10.00 Fair CLR 60.8 55.4 83% 29.86 0.0
04 05:15 SW 12 10.00 Fair CLR 62.6 55.4 77% 29.86 0.0
04 04:55 SW 14 10.00 Fair CLR 62.6 55.4 77% 29.86 0.0
04 04:35 SW 15 10.00 Fair CLR 62.6 55.4 77% 29.86 0.0
04 04:15 SW 14 10.00 Fair CLR 62.6 55.4 77% 29.86 0.0
04 03:55 SW 15 10.00 Fair CLR 64.4 55.4 73% 29.86 0.0
04 03:35 SW 13 G 22 10.00 Fair CLR 64.4 55.4 73% 29.86 0.0
04 03:15 SW 16 10.00 Fair CLR 64.4 55.4 73% 29.86 0.0
04 02:55 SW 16 10.00 Fair CLR 66.2 55.4 68% 29.86 0.0
04 02:35 SW 21 G 26 10.00 Fair and Breezy CLR 66.2 55.4 68% 29.87 0.0
04 02:15 SW 17 G 25 10.00 Fair CLR 66.2 55.4 68% 29.87 0.0
04 01:55 SW 17 10.00 Fair CLR 66.2 53.6 64% 29.88 0.0
04 01:35 SW 16 10.00 Fair CLR 66.2 53.6 64% 29.89 0.0
04 01:15 SW 15 10.00 Fair CLR 66.2 53.6 64% 29.9 0.0
04 00:55 S 13 10.00 Fair CLR 64.4 53.6 68% 29.91 0.0
04 00:15 S 9 10.00 Fair CLR 64.4 53.6 68% 29.92 0.0
03 23:55 S 10 10.00 Fair CLR 64.4 55.4 73% 29.92 0.0
03 23:35 S 13 10.00 Fair CLR 66.2 53.6 64% 29.92 0.0
03 23:15 S 13 10.00 Fair CLR 66.2 53.6 64% 29.93 0.0
03 22:55 S 10 10.00 Fair CLR 66.2 53.6 64% 29.93 0.0
03 22:35 S 12 10.00 Fair CLR 66.2 55.4 68% 29.93 0.0
03 22:15 S 10 10.00 Fair CLR 66.2 55.4 68% 29.93 0.0
03 21:55 S 10 10.00 Fair CLR 66.2 53.6 64% 29.93 0.0
03 21:35 S 12 10.00 Fair CLR 66.2 53.6 64% 29.93 0.0
03 21:15 S 10 10.00 Fair CLR 68 53.6 60% 29.93 0.0
03 20:55 S 10 10.00 Fair CLR 68 53.6 60% 29.92 0.0
03 20:35 S 12 10.00 Fair CLR 68 53.6 60% 29.92 0.0
03 20:15 S 12 10.00 Fair CLR 69.8 53.6 57% 29.92 0.0
03 19:55 S 13 10.00 Fair CLR 69.8 53.6 57% 29.91 0.0
03 19:35 S 13 10.00 Fair CLR 71.6 53.6 53% 29.92 0.0
03 19:15 S 16 10.00 Fair CLR 71.6 53.6 53% 29.92 0.0
03 18:55 S 16 10.00 Fair CLR 73.4 53.6 50% 29.93 0.0
03 18:35 S 18 10.00 Fair CLR 73.4 53.6 50% 29.94 0.0
03 18:15 SW 18 10.00 Fair CLR 75.2 53.6 47% 78 29.94 0.0
03 17:55 S 15 G 23 10.00 Fair CLR 75.2 51.8 44% 78 29.94 0.0
03 17:35 SW 22 10.00 Fair and Breezy CLR 75.2 51.8 44% 78 29.95 0.0
03 17:15 SW 17 10.00 Fair CLR 75.2 50 41% 78 29.96 0.0
03 16:55 SW 14 G 22 10.00 Fair CLR 75.2 50 41% 78 29.97 0.0
03 16:35 SW 18 G 24 10.00 Fair CLR 75.2 50 41% 78 29.98 0.0
03 16:15 S 18 10.00 Fair CLR 75.2 50 41% 78 29.98 0.0
03 15:55 SW 18 G 25 10.00 Fair CLR 75.2 48.2 39% 77 30 0.0
03 15:35 S 20 9.00 Fair CLR 73.4 48.2 41% 30.01 0.0
03 15:15 SW 16 10.00 Fair CLR 73.4 48.2 41% 30.02 0.0
03 14:55 S 14 G 20 10.00 Fair CLR 73.4 48.2 41% 30.04 0.0
03 14:35 S 15 G 23 10.00 Fair CLR 73.4 48.2 41% 30.05 0.0
03 13:35 SW 15 G 23 10.00 Fair CLR 69.8 46.4 43% 30.08 0.0
03 13:15 SW 16 G 26 10.00 Fair CLR 69.8 46.4 43% 30.09 0.0
03 12:55 SW 15 G 23 10.00 Fair CLR 69.8 46.4 43% 30.11 0.0
03 12:35 SW 17 G 24 10.00 Fair CLR 68 46.4 46% 30.11 0.0
03 12:15 SW 16 G 24 10.00 Fair CLR 68 46.4 46% 30.13 0.0
03 11:55 SW 17 G 31 10.00 Fair CLR 68 46.4 46% 30.14 0.0
03 11:35 S 15 10.00 Fair CLR 66.2 46.4 49% 30.14 0.0
03 11:15 S 17 10.00 Fair CLR 66.2 46.4 49% 30.15 0.0
03 10:55 SW 14 10.00 Fair CLR 64.4 46.4 52% 30.16 0.0
03 10:35 S 15 G 21 10.00 Fair CLR 62.6 46.4 56% 30.16 0.0
03 10:15 SW 13 10.00 Fair CLR 62.6 46.4 56% 30.17 0.0
03 09:55 SW 14 10.00 Fair CLR 60.8 46.4 59% 30.17 0.0
03 09:35 SW 15 10.00 Fair CLR 59 46.4 63% 30.17 0.0
03 09:15 S 15 10.00 Fair CLR 59 46.4 63% 30.17 0.0
03 08:55 S 13 9.00 Fair CLR 57.2 46.4 67% 30.17 0.0
03 08:35 S 10 10.00 Fair CLR 55.4 46.4 72% 30.17 0.0
03 08:15 SW 9 10.00 Fair CLR 53.6 46.4 77% 30.17 0.0
03 07:55 S 8 10.00 Fair CLR 51.8 46.4 82% 30.17 0.0
03 07:35 Calm 10.00 Fair CLR 50 46.4 88% 30.16 0.0
03 07:15 Calm 10.00 Fair CLR 48.2 46.4 94% 30.16 0.0
03 06:55 Calm 10.00 Fair CLR 46.4 46.4 100% 30.16 0.0
03 06:35 Calm 10.00 Fair CLR 44.6 44.6 100% 30.15 0.0
03 06:15 Calm 10.00 Fair CLR 44.6 44.6 100% 30.15 0.0
03 05:55 Calm 10.00 Fair CLR 44.6 44.6 100% 30.15 0.0
03 04:55 Calm 10.00 Fair CLR 44.6 44.6 100% 30.14 0.0
03 04:35 Calm 10.00 Fair CLR 44.6 44.6 100% 30.15 0.0
03 04:15 Calm 10.00 Fair CLR 46.4 44.6 93% 30.15 0.0
03 03:55 Calm 10.00 Fair CLR 46.4 44.6 93% 30.15 0.0
03 03:35 Calm 10.00 Fair CLR 48.2 46.4 94% 30.15 0.0
03 03:15 Calm 10.00 Fair CLR 48.2 44.6 87% 30.14 0.0
03 02:55 Calm 10.00 Fair CLR 48.2 42.8 82% 30.14 0.0
03 02:35 Calm 10.00 Fair CLR 48.2 42.8 82% 30.14 0.0
03 02:15 Calm 10.00 Fair CLR 48.2 44.6 87% 30.14 0.0
03 01:55 Calm 10.00 Fair CLR 50 44.6 82% 30.14 0.0
03 01:35 Calm 10.00 Fair CLR 50 44.6 82% 30.15 0.0
03 01:15 Calm 10.00 Fair CLR 51.8 41 67% 30.15 0.0
03 00:55 E 3 10.00 Fair CLR 51.8 42.8 72% 30.15 0.0
03 00:35 E 5 10.00 Fair CLR 51.8 42.8 72% 30.14 0.0
03 00:15 E 5 10.00 Fair CLR 51.8 42.8 72% 30.14 0.0
02 23:55 SE 6 10.00 Fair CLR 51.8 42.8 72% 30.14 0.0
02 23:35 SE 5 10.00 Fair CLR 53.6 42.8 67% 30.14 0.0
02 23:15 E 7 10.00 Fair CLR 53.6 42.8 67% 30.14 0.0
02 22:55 E 8 10.00 Fair CLR 55.4 42.8 63% 30.13 0.0
02 22:35 E 8 10.00 Fair CLR 55.4 42.8 63% 30.13 0.0
02 22:15 E 8 10.00 Fair CLR 57.2 44.6 63% 30.13 0.0
02 21:55 E 7 10.00 Fair CLR 57.2 42.8 59% 30.12 0.0
02 21:35 E 7 10.00 Fair CLR 57.2 41 55% 30.12 0.0
02 21:15 Calm 7.00 Fair CLR 59 39.2 48% 30.11 0.0
02 20:55 NE 6 10.00 Fair CLR 59 39.2 48% 30.1 0.0
02 20:35 Calm 10.00 Fair CLR 60.8 39.2 45% 30.1 0.0
02 20:15 N 6 10.00 Fair CLR 60.8 37.4 42% 30.09 0.0
02 19:55 N 6 8.00 Fair CLR 62.6 37.4 39% 30.08 0.0
02 19:35 N 8 10.00 Fair CLR 64.4 35.6 34% 30.08 0.0
02 19:15 N 13 10.00 Fair CLR 66.2 35.6 32% 30.07 0.0
02 18:55 N 10 10.00 Fair CLR 66.2 35.6 32% 30.07 0.0
02 18:35 N 10 G 16 10.00 Fair CLR 68 35.6 30% 30.06 0.0
02 18:15 N 13 10.00 Fair CLR 68 35.6 30% 30.06 0.0
02 17:55 Calm 10.00 Fair CLR 68 37.4 33% 30.06 0.0
02 17:35 N 14 G 20 10.00 Fair CLR 68 37.4 33% 30.06 0.0
02 17:15 NW 9 G 20 10.00 Fair CLR 68 37.4 33% 30.06 0.0
02 16:55 N 14 G 20 10.00 NULL NULL 69.8 37.4 31% 30.06 0.0
02 16:35 NW 16 G 25 10.00 NULL NULL 69.8 37.4 31% 30.05 0.0
02 16:15 N 12 G 20 10.00 Fair CLR 69.8 39.2 33% 30.06 0.0
02 15:55 N 13 G 22 10.00 NULL NULL 68 37.4 33% 30.05 0.0
02 15:35 NW 18 10.00 Fair CLR 69.8 39.2 33% 30.05 0.0
02 15:15 NW 16 10.00 NULL NULL 69.8 37.4 31% 30.06 0.0
02 14:55 N 15 G 22 10.00 NULL NULL 69.8 39.2 33% 30.06 0.0
02 14:35 NW 17 G 24 10.00 NULL NULL 68 37.4 33% 30.06 0.0
02 14:15 NW 12 G 22 10.00 NULL NULL 68 37.4 33% 30.06 0.0
02 13:55 N 14 G 23 10.00 NULL NULL 69.8 39.2 33% 30.06 0.0
02 13:35 NW 20 G 28 10.00 NULL NULL 68 37.4 33% 30.06 0.0
02 13:15 NW 13 G 20 10.00 NULL NULL 68 39.2 35% 30.07 0.0
02 12:55 NW 14 G 21 10.00 NULL NULL 68 41 38% 30.07 0.0
02 12:35 N 14 10.00 NULL NULL 68 42.8 40% 30.08 0.0
02 12:15 N 12 G 18 10.00 Fair CLR 68 42.8 40% 30.08 0.0
02 11:55 NW 13 10.00 Fair CLR 66.2 39.2 37% 30.08 0.0
02 11:35 NW 12 10.00 Fair CLR 66.2 37.4 35% 30.08 0.0
02 11:15 NW 10 10.00 Fair CLR 66.2 39.2 37% 30.08 0.0
02 10:55 N 12 10.00 Fair CLR 66.2 41 40% 30.08 0.0
02 10:35 NW 10 10.00 Fair CLR 64.4 41 43% 30.08 0.0
02 10:15 NW 9 10.00 Fair CLR 62.6 42.8 49% 30.08 0.0
02 09:55 W 6 10.00 Fair CLR 60.8 44.6 55% 30.08 0.0
02 09:35 W 7 9.00 Fair CLR 60.8 44.6 55% 30.08 0.0
02 09:15 SW 5 10.00 Fair CLR 57.2 44.6 63% 30.08 0.0
02 08:55 SW 5 10.00 Fair CLR 57.2 44.6 63% 30.08 0.0
02 08:35 SW 6 10.00 Fair CLR 55.4 44.6 67% 30.08 0.0
02 08:15 W 5 10.00 Fair CLR 51.8 44.6 77% 30.08 0.0
02 07:55 W 3 10.00 Fair CLR 50 44.6 82% 30.08 0.0
02 07:35 NW 7 10.00 A Few Clouds FEW100 48.2 46.4 94% 46 30.08 0.0
02 07:15 Calm 10.00 Partly Cloudy SCT100 48.2 48.2 100% 30.07 0.0
02 06:55 Calm 10.00 A Few Clouds FEW100 48.2 48.2 100% 30.06 0.0
02 06:35 Calm 10.00 Fair CLR 46.4 46.4 100% 30.06 0.0
02 06:15 W 5 10.00 Fair CLR 46.4 46.4 100% 45 30.05 0.0
02 05:55 Calm 9.00 Fair CLR 48.2 48.2 100% 30.04 0.0
02 05:35 Calm 10.00 Fair CLR 48.2 48.2 100% 30.04 0.0
02 05:15 Calm 10.00 Fair CLR 48.2 48.2 100% 30.04 0.0
02 04:55 Calm 10.00 Fair CLR 48.2 48.2 100% 30.04 0.0
02 04:35 Calm 10.00 Fair CLR 48.2 48.2 100% 30.04 0.0
02 04:15 Calm 10.00 Fair CLR 50 50 100% 30.04 0.0
02 03:55 Calm 10.00 Fair CLR 50 50 100% 30.04 0.0
02 03:35 Calm 10.00 Fair CLR 50 50 100% 30.03 0.0
02 03:15 Calm 10.00 Fair CLR 51.8 50 94% 30.03 0.0
02 02:55 Calm 10.00 Fair CLR 51.8 50 94% 30.03 0.0
02 02:35 Calm 10.00 Fair CLR 51.8 50 94% 30.04 0.0
02 02:15 Calm 10.00 Fair CLR 51.8 48.2 88% 30.05 0.0
02 01:55 W 3 10.00 Fair CLR 51.8 46.4 82% 30.05 0.0
02 01:35 Calm 10.00 Fair CLR 51.8 50 94% 30.06 0.0
02 01:15 Calm 10.00 Fair CLR 53.6 50 88% 30.07 0.0
02 00:55 Calm 10.00 Fair CLR 53.6 50 88% 30.07 0.0
02 00:35 Calm 10.00 Fair CLR 55.4 50 82% 30.06 0.0
02 00:15 Calm 10.00 Fair CLR 55.4 48.2 77% 30.06 0.0
01 23:55 Calm 10.00 Fair CLR 55.4 46.4 72% 30.05 0.0
01 23:35 Calm 10.00 Fair CLR 57.2 46.4 67% 30.05 0.0
01 23:15 Calm 10.00 Fair CLR 59 42.8 55% 30.05 0.0
01 22:55 E 3 10.00 Fair CLR 59 44.6 59% 30.05 0.0
01 22:35 Calm 10.00 Fair CLR 59 44.6 59% 30.06 0.0
01 22:15 Calm 10.00 Fair CLR 59 42.8 55% 30.07 0.0
Date Time (cdt) Wind (mph) Vis. (mi.) Weather Sky Cond. Air Dwpt Max. Min. Relative Humidity Wind Chill (°F) Heat Index (°F) altimeter (in) sea level (mb) 1 hr 3 hr 6 hr
6 hour
Temperature (ºF) Pressure Precipitation (in)